sensor_id;sensor_type;location;lat;lon;timestamp;temperature;humidity
27128;DHT22;14660;49.008;8.390;2023-04-03T00:00:58;6.60;99.90
27128;DHT22;14660;49.008;8.390;2023-04-03T00:03:25;6.50;99.90
27128;DHT22;14660;49.008;8.390;2023-04-03T00:05:54;6.40;99.90
27128;DHT22;14660;49.008;8.390;2023-04-03T00:08:21;6.50;99.90
27128;DHT22;14660;49.008;8.390;2023-04-03T00:10:47;6.50;99.90
27128;DHT22;14660;49.008;8.390;2023-04-03T00:13:16;6.70;99.90
27128;DHT22;14660;49.008;8.390;2023-04-03T00:15:43;6.60;99.90
27128;DHT22;14660;49.008;8.390;2023-04-03T00:18:10;6.80;99.90
27128;DHT22;14660;49.008;8.390;2023-04-03T00:20:37;6.80;99.90
27128;DHT22;14660;49.008;8.390;2023-04-03T00:23:05;6.60;99.90
27128;DHT22;14660;49.008;8.390;2023-04-03T00:25:35;6.60;99.90
27128;DHT22;14660;49.008;8.390;2023-04-03T00:28:04;6.70;99.90
27128;DHT22;14660;49.008;8.390;2023-04-03T00:30:32;6.70;99.90
27128;DHT22;14660;49.008;8.390;2023-04-03T00:33:00;6.70;99.90
27128;DHT22;14660;49.008;8.390;2023-04-03T00:35:27;6.70;99.90
27128;DHT22;14660;49.008;8.390;2023-04-03T00:37:55;6.70;99.90
27128;DHT22;14660;49.008;8.390;2023-04-03T00:40:25;6.70;99.90
27128;DHT22;14660;49.008;8.390;2023-04-03T00:42:58;6.50;99.90
27128;DHT22;14660;49.008;8.390;2023-04-03T00:45:48;6.70;99.90
27128;DHT22;14660;49.008;8.390;2023-04-03T00:48:22;6.70;99.90
27128;DHT22;14660;49.008;8.390;2023-04-03T00:50:49;6.80;99.90
27128;DHT22;14660;49.008;8.390;2023-04-03T00:53:23;6.60;99.90
27128;DHT22;14660;49.008;8.390;2023-04-03T00:55:51;6.50;99.90
27128;DHT22;14660;49.008;8.390;2023-04-03T00:58:23;6.50;99.90
27128;DHT22;14660;49.008;8.390;2023-04-03T01:00:55;6.50;99.90
27128;DHT22;14660;49.008;8.390;2023-04-03T01:03:24;6.50;99.90
27128;DHT22;14660;49.008;8.390;2023-04-03T01:05:51;6.50;99.90
27128;DHT22;14660;49.008;8.390;2023-04-03T01:08:18;6.60;99.90
27128;DHT22;14660;49.008;8.390;2023-04-03T01:10:45;6.50;99.90
27128;DHT22;14660;49.008;8.390;2023-04-03T01:13:30;6.50;99.90
27128;DHT22;14660;49.008;8.390;2023-04-03T01:16:01;6.50;99.90
27128;DHT22;14660;49.008;8.390;2023-04-03T01:18:29;6.50;99.90
27128;DHT22;14660;49.008;8.390;2023-04-03T01:26:46;6.50;99.90
27128;DHT22;14660;49.008;8.390;2023-04-03T01:29:13;6.60;99.90
27128;DHT22;14660;49.008;8.390;2023-04-03T01:31:59;6.50;99.90
27128;DHT22;14660;49.008;8.390;2023-04-03T01:34:27;6.60;99.90
27128;DHT22;14660;49.008;8.390;2023-04-03T01:36:54;6.50;99.90
27128;DHT22;14660;49.008;8.390;2023-04-03T01:39:22;6.30;99.90
27128;DHT22;14660;49.008;8.390;2023-04-03T01:41:49;6.30;99.90
27128;DHT22;14660;49.008;8.390;2023-04-03T01:44:17;6.30;99.90
27128;DHT22;14660;49.008;8.390;2023-04-03T01:46:44;6.20;99.90
27128;DHT22;14660;49.008;8.390;2023-04-03T01:49:11;6.10;99.90
27128;DHT22;14660;49.008;8.390;2023-04-03T01:51:38;6.10;99.90
27128;DHT22;14660;49.008;8.390;2023-04-03T01:54:04;6.10;99.90
27128;DHT22;14660;49.008;8.390;2023-04-03T01:56:32;6.10;99.90
27128;DHT22;14660;49.008;8.390;2023-04-03T01:58:58;6.00;99.90
27128;DHT22;14660;49.008;8.390;2023-04-03T02:01:26;6.00;99.90
27128;DHT22;14660;49.008;8.390;2023-04-03T02:03:55;6.00;99.90
27128;DHT22;14660;49.008;8.390;2023-04-03T02:06:22;5.80;99.90
27128;DHT22;14660;49.008;8.390;2023-04-03T02:08:48;5.80;99.90
27128;DHT22;14660;49.008;8.390;2023-04-03T02:11:15;5.70;99.90
27128;DHT22;14660;49.008;8.390;2023-04-03T02:13:41;5.70;99.90
27128;DHT22;14660;49.008;8.390;2023-04-03T02:16:10;5.90;99.90
27128;DHT22;14660;49.008;8.390;2023-04-03T02:18:38;5.70;99.90
27128;DHT22;14660;49.008;8.390;2023-04-03T02:21:06;5.80;99.90
27128;DHT22;14660;49.008;8.390;2023-04-03T02:23:34;5.70;99.90
27128;DHT22;14660;49.008;8.390;2023-04-03T02:26:11;5.80;99.90
27128;DHT22;14660;49.008;8.390;2023-04-03T02:28:44;5.80;99.90
27128;DHT22;14660;49.008;8.390;2023-04-03T02:31:12;5.70;99.90
27128;DHT22;14660;49.008;8.390;2023-04-03T02:33:39;5.70;99.90
27128;DHT22;14660;49.008;8.390;2023-04-03T02:36:06;5.70;99.90
27128;DHT22;14660;49.008;8.390;2023-04-03T02:38:34;5.70;99.90
27128;DHT22;14660;49.008;8.390;2023-04-03T02:41:06;5.50;99.90
27128;DHT22;14660;49.008;8.390;2023-04-03T02:43:33;5.50;99.90
27128;DHT22;14660;49.008;8.390;2023-04-03T02:46:00;5.50;99.90
27128;DHT22;14660;49.008;8.390;2023-04-03T02:48:28;5.60;99.90
27128;DHT22;14660;49.008;8.390;2023-04-03T02:50:54;5.60;99.90
27128;DHT22;14660;49.008;8.390;2023-04-03T02:53:21;5.50;99.90
27128;DHT22;14660;49.008;8.390;2023-04-03T02:55:49;5.50;99.90
27128;DHT22;14660;49.008;8.390;2023-04-03T02:58:17;5.50;99.90
27128;DHT22;14660;49.008;8.390;2023-04-03T03:00:43;5.30;99.90
27128;DHT22;14660;49.008;8.390;2023-04-03T03:03:12;5.30;99.90
27128;DHT22;14660;49.008;8.390;2023-04-03T03:05:39;5.30;99.90
27128;DHT22;14660;49.008;8.390;2023-04-03T03:08:04;5.10;99.90
27128;DHT22;14660;49.008;8.390;2023-04-03T03:10:32;5.20;99.90
27128;DHT22;14660;49.008;8.390;2023-04-03T03:12:59;5.20;99.90
27128;DHT22;14660;49.008;8.390;2023-04-03T03:15:26;5.10;99.90
27128;DHT22;14660;49.008;8.390;2023-04-03T03:17:52;5.10;99.90
27128;DHT22;14660;49.008;8.390;2023-04-03T03:20:19;5.10;99.90
27128;DHT22;14660;49.008;8.390;2023-04-03T03:22:47;5.10;99.90
27128;DHT22;14660;49.008;8.390;2023-04-03T03:25:13;4.90;99.90
27128;DHT22;14660;49.008;8.390;2023-04-03T03:27:42;5.10;99.90
27128;DHT22;14660;49.008;8.390;2023-04-03T03:30:10;5.00;99.90
27128;DHT22;14660;49.008;8.390;2023-04-03T03:32:37;4.90;99.90
27128;DHT22;14660;49.008;8.390;2023-04-03T03:35:04;4.90;99.90
27128;DHT22;14660;49.008;8.390;2023-04-03T03:37:31;5.00;99.90
27128;DHT22;14660;49.008;8.390;2023-04-03T03:39:57;4.90;99.90
27128;DHT22;14660;49.008;8.390;2023-04-03T03:42:24;5.00;99.90
27128;DHT22;14660;49.008;8.390;2023-04-03T03:44:51;5.00;99.90
27128;DHT22;14660;49.008;8.390;2023-04-03T03:47:18;5.00;99.90
27128;DHT22;14660;49.008;8.390;2023-04-03T03:49:45;5.00;99.90
27128;DHT22;14660;49.008;8.390;2023-04-03T03:52:12;5.10;99.90
27128;DHT22;14660;49.008;8.390;2023-04-03T03:54:39;4.90;99.90
27128;DHT22;14660;49.008;8.390;2023-04-03T03:57:06;5.00;99.90
27128;DHT22;14660;49.008;8.390;2023-04-03T03:59:33;4.90;99.90
27128;DHT22;14660;49.008;8.390;2023-04-03T04:01:59;4.90;99.90
27128;DHT22;14660;49.008;8.390;2023-04-03T04:04:26;4.90;99.90
27128;DHT22;14660;49.008;8.390;2023-04-03T04:06:54;5.00;99.90
27128;DHT22;14660;49.008;8.390;2023-04-03T04:09:21;4.90;99.90
27128;DHT22;14660;49.008;8.390;2023-04-03T04:11:48;4.90;99.90
27128;DHT22;14660;49.008;8.390;2023-04-03T04:14:15;4.90;99.90
27128;DHT22;14660;49.008;8.390;2023-04-03T04:16:42;5.00;99.90
27128;DHT22;14660;49.008;8.390;2023-04-03T04:19:08;4.90;99.90
27128;DHT22;14660;49.008;8.390;2023-04-03T04:21:36;4.80;99.90
27128;DHT22;14660;49.008;8.390;2023-04-03T04:24:04;5.00;99.90
27128;DHT22;14660;49.008;8.390;2023-04-03T04:26:31;5.10;99.90
27128;DHT22;14660;49.008;8.390;2023-04-03T04:29:01;5.00;99.90
27128;DHT22;14660;49.008;8.390;2023-04-03T04:31:28;5.00;99.90
27128;DHT22;14660;49.008;8.390;2023-04-03T04:33:55;5.00;99.90
27128;DHT22;14660;49.008;8.390;2023-04-03T04:36:22;5.20;99.90
27128;DHT22;14660;49.008;8.390;2023-04-03T04:38:49;5.00;99.90
27128;DHT22;14660;49.008;8.390;2023-04-03T04:41:20;5.20;99.90
27128;DHT22;14660;49.008;8.390;2023-04-03T04:43:49;5.10;99.90
27128;DHT22;14660;49.008;8.390;2023-04-03T04:46:17;5.20;99.90
27128;DHT22;14660;49.008;8.390;2023-04-03T04:48:44;5.10;99.90
27128;DHT22;14660;49.008;8.390;2023-04-03T04:51:11;5.10;99.90
27128;DHT22;14660;49.008;8.390;2023-04-03T04:53:37;5.10;99.90
27128;DHT22;14660;49.008;8.390;2023-04-03T04:56:05;5.20;99.90
27128;DHT22;14660;49.008;8.390;2023-04-03T04:58:32;5.10;99.90
27128;DHT22;14660;49.008;8.390;2023-04-03T05:01:04;5.10;99.90
27128;DHT22;14660;49.008;8.390;2023-04-03T05:03:32;5.10;99.90
27128;DHT22;14660;49.008;8.390;2023-04-03T05:06:02;5.10;99.90
27128;DHT22;14660;49.008;8.390;2023-04-03T05:08:30;5.10;99.90
27128;DHT22;14660;49.008;8.390;2023-04-03T05:10:57;5.00;99.90
27128;DHT22;14660;49.008;8.390;2023-04-03T05:13:24;4.90;99.90
27128;DHT22;14660;49.008;8.390;2023-04-03T05:15:50;4.80;99.90
27128;DHT22;14660;49.008;8.390;2023-04-03T05:18:17;4.70;99.90
27128;DHT22;14660;49.008;8.390;2023-04-03T05:20:44;4.70;99.90
27128;DHT22;14660;49.008;8.390;2023-04-03T05:23:10;4.60;99.90
27128;DHT22;14660;49.008;8.390;2023-04-03T05:25:39;4.60;99.90
27128;DHT22;14660;49.008;8.390;2023-04-03T05:28:07;4.60;99.90
27128;DHT22;14660;49.008;8.390;2023-04-03T05:30:34;4.50;99.90
27128;DHT22;14660;49.008;8.390;2023-04-03T05:33:01;4.30;99.90
27128;DHT22;14660;49.008;8.390;2023-04-03T05:35:30;4.40;99.90
27128;DHT22;14660;49.008;8.390;2023-04-03T05:37:56;4.50;99.90
27128;DHT22;14660;49.008;8.390;2023-04-03T05:40:25;4.40;99.90
27128;DHT22;14660;49.008;8.390;2023-04-03T05:42:52;4.40;99.90
27128;DHT22;14660;49.008;8.390;2023-04-03T05:45:20;4.40;99.90
27128;DHT22;14660;49.008;8.390;2023-04-03T05:47:47;4.50;99.90
27128;DHT22;14660;49.008;8.390;2023-04-03T05:50:15;4.50;99.90
27128;DHT22;14660;49.008;8.390;2023-04-03T05:52:47;4.60;99.90
27128;DHT22;14660;49.008;8.390;2023-04-03T05:55:13;4.60;99.90
27128;DHT22;14660;49.008;8.390;2023-04-03T05:57:40;4.60;99.90
27128;DHT22;14660;49.008;8.390;2023-04-03T06:00:12;4.50;99.90
27128;DHT22;14660;49.008;8.390;2023-04-03T06:02:39;4.60;99.90
27128;DHT22;14660;49.008;8.390;2023-04-03T06:05:07;4.70;99.90
27128;DHT22;14660;49.008;8.390;2023-04-03T06:07:34;4.70;99.90
27128;DHT22;14660;49.008;8.390;2023-04-03T06:10:04;4.60;99.90
27128;DHT22;14660;49.008;8.390;2023-04-03T06:12:37;4.70;99.90
27128;DHT22;14660;49.008;8.390;2023-04-03T06:15:04;4.80;99.90
27128;DHT22;14660;49.008;8.390;2023-04-03T06:17:31;4.70;99.90
27128;DHT22;14660;49.008;8.390;2023-04-03T06:19:58;4.80;99.90
27128;DHT22;14660;49.008;8.390;2023-04-03T06:22:25;4.80;99.90
27128;DHT22;14660;49.008;8.390;2023-04-03T06:24:53;4.80;99.90
27128;DHT22;14660;49.008;8.390;2023-04-03T06:27:21;4.90;99.90
27128;DHT22;14660;49.008;8.390;2023-04-03T06:29:47;5.10;99.90
27128;DHT22;14660;49.008;8.390;2023-04-03T06:32:15;5.10;99.90
27128;DHT22;14660;49.008;8.390;2023-04-03T06:34:43;4.90;99.90
27128;DHT22;14660;49.008;8.390;2023-04-03T06:37:22;5.00;99.90
27128;DHT22;14660;49.008;8.390;2023-04-03T06:39:49;5.10;99.90
27128;DHT22;14660;49.008;8.390;2023-04-03T06:42:16;5.30;99.90
27128;DHT22;14660;49.008;8.390;2023-04-03T06:44:43;5.50;99.90
27128;DHT22;14660;49.008;8.390;2023-04-03T06:47:13;5.60;99.90
27128;DHT22;14660;49.008;8.390;2023-04-03T06:49:40;5.60;99.90
27128;DHT22;14660;49.008;8.390;2023-04-03T06:52:07;5.70;99.90
27128;DHT22;14660;49.008;8.390;2023-04-03T06:54:34;5.90;99.90
27128;DHT22;14660;49.008;8.390;2023-04-03T06:57:02;5.80;99.90
27128;DHT22;14660;49.008;8.390;2023-04-03T06:59:29;5.80;99.90
27128;DHT22;14660;49.008;8.390;2023-04-03T07:01:56;5.90;99.90
27128;DHT22;14660;49.008;8.390;2023-04-03T07:04:23;5.90;99.90
27128;DHT22;14660;49.008;8.390;2023-04-03T07:06:48;6.00;99.90
27128;DHT22;14660;49.008;8.390;2023-04-03T07:09:15;6.10;99.90
27128;DHT22;14660;49.008;8.390;2023-04-03T07:11:42;6.10;99.90
27128;DHT22;14660;49.008;8.390;2023-04-03T07:14:09;6.10;99.90
27128;DHT22;14660;49.008;8.390;2023-04-03T07:16:36;6.40;99.90
27128;DHT22;14660;49.008;8.390;2023-04-03T07:19:02;6.60;99.90
27128;DHT22;14660;49.008;8.390;2023-04-03T07:21:29;6.40;99.90
27128;DHT22;14660;49.008;8.390;2023-04-03T07:23:56;6.50;99.90
27128;DHT22;14660;49.008;8.390;2023-04-03T07:26:24;6.50;99.90
27128;DHT22;14660;49.008;8.390;2023-04-03T07:28:52;6.50;99.90
27128;DHT22;14660;49.008;8.390;2023-04-03T07:31:19;6.60;99.90
27128;DHT22;14660;49.008;8.390;2023-04-03T07:33:46;6.80;99.90
27128;DHT22;14660;49.008;8.390;2023-04-03T07:36:16;7.00;99.90
27128;DHT22;14660;49.008;8.390;2023-04-03T07:38:43;7.10;99.90
27128;DHT22;14660;49.008;8.390;2023-04-03T07:41:16;7.10;99.90
27128;DHT22;14660;49.008;8.390;2023-04-03T07:43:45;7.30;99.90
27128;DHT22;14660;49.008;8.390;2023-04-03T07:46:13;7.40;99.90
27128;DHT22;14660;49.008;8.390;2023-04-03T07:48:39;7.30;99.90
27128;DHT22;14660;49.008;8.390;2023-04-03T07:51:07;7.10;99.90
27128;DHT22;14660;49.008;8.390;2023-04-03T07:53:33;6.90;99.90
27128;DHT22;14660;49.008;8.390;2023-04-03T07:56:01;7.00;99.90
27128;DHT22;14660;49.008;8.390;2023-04-03T07:58:29;7.30;99.90
27128;DHT22;14660;49.008;8.390;2023-04-03T08:00:56;7.30;99.90
27128;DHT22;14660;49.008;8.390;2023-04-03T08:03:23;7.50;99.90
27128;DHT22;14660;49.008;8.390;2023-04-03T08:05:51;7.50;99.90
27128;DHT22;14660;49.008;8.390;2023-04-03T08:08:23;7.60;99.90
27128;DHT22;14660;49.008;8.390;2023-04-03T08:10:55;7.90;99.90
27128;DHT22;14660;49.008;8.390;2023-04-03T08:13:23;8.10;99.90
27128;DHT22;14660;49.008;8.390;2023-04-03T08:15:50;8.30;99.90
27128;DHT22;14660;49.008;8.390;2023-04-03T08:18:17;8.40;99.90
27128;DHT22;14660;49.008;8.390;2023-04-03T08:20:44;8.40;99.90
27128;DHT22;14660;49.008;8.390;2023-04-03T08:23:12;8.50;99.90
27128;DHT22;14660;49.008;8.390;2023-04-03T08:25:42;8.40;99.90
27128;DHT22;14660;49.008;8.390;2023-04-03T08:28:10;8.30;99.90
27128;DHT22;14660;49.008;8.390;2023-04-03T08:30:39;8.10;99.90
27128;DHT22;14660;49.008;8.390;2023-04-03T08:33:07;8.30;99.90
27128;DHT22;14660;49.008;8.390;2023-04-03T08:35:41;8.40;99.90
27128;DHT22;14660;49.008;8.390;2023-04-03T08:38:17;8.40;99.90
27128;DHT22;14660;49.008;8.390;2023-04-03T08:40:44;8.10;99.90
27128;DHT22;14660;49.008;8.390;2023-04-03T08:43:32;8.00;99.90
27128;DHT22;14660;49.008;8.390;2023-04-03T08:46:05;8.10;99.90
27128;DHT22;14660;49.008;8.390;2023-04-03T08:48:35;8.30;99.90
27128;DHT22;14660;49.008;8.390;2023-04-03T08:51:06;8.30;99.90
27128;DHT22;14660;49.008;8.390;2023-04-03T08:53:41;8.30;99.90
27128;DHT22;14660;49.008;8.390;2023-04-03T08:56:10;8.50;99.90
27128;DHT22;14660;49.008;8.390;2023-04-03T08:59:16;8.80;99.90
27128;DHT22;14660;49.008;8.390;2023-04-03T09:01:49;9.40;99.90
27128;DHT22;14660;49.008;8.390;2023-04-03T09:04:16;9.20;99.90
27128;DHT22;14660;49.008;8.390;2023-04-03T09:06:50;9.40;99.90
27128;DHT22;14660;49.008;8.390;2023-04-03T09:09:40;9.30;99.90
27128;DHT22;14660;49.008;8.390;2023-04-03T09:12:32;9.10;99.90
27128;DHT22;14660;49.008;8.390;2023-04-03T09:18:22;9.30;99.90
27128;DHT22;14660;49.008;8.390;2023-04-03T09:24:00;8.80;99.90
27128;DHT22;14660;49.008;8.390;2023-04-03T09:26:34;8.90;99.90
27128;DHT22;14660;49.008;8.390;2023-04-03T09:29:06;8.80;99.90
27128;DHT22;14660;49.008;8.390;2023-04-03T09:34:29;9.00;99.90
27128;DHT22;14660;49.008;8.390;2023-04-03T09:36:59;8.70;99.90
27128;DHT22;14660;49.008;8.390;2023-04-03T09:39:49;8.70;99.90
27128;DHT22;14660;49.008;8.390;2023-04-03T09:42:35;8.70;99.90
27128;DHT22;14660;49.008;8.390;2023-04-03T09:45:18;8.80;99.90
27128;DHT22;14660;49.008;8.390;2023-04-03T09:47:48;9.10;99.90
27128;DHT22;14660;49.008;8.390;2023-04-03T09:50:34;9.30;99.90
27128;DHT22;14660;49.008;8.390;2023-04-03T09:53:07;9.30;99.90
27128;DHT22;14660;49.008;8.390;2023-04-03T09:55:43;9.40;99.90
27128;DHT22;14660;49.008;8.390;2023-04-03T09:58:32;9.20;99.90
27128;DHT22;14660;49.008;8.390;2023-04-03T10:01:02;9.30;99.90
27128;DHT22;14660;49.008;8.390;2023-04-03T10:03:46;9.20;99.90
27128;DHT22;14660;49.008;8.390;2023-04-03T10:06:31;9.20;99.90
27128;DHT22;14660;49.008;8.390;2023-04-03T10:09:20;9.30;99.90
27128;DHT22;14660;49.008;8.390;2023-04-03T10:12:06;9.40;99.90
27128;DHT22;14660;49.008;8.390;2023-04-03T10:14:37;9.40;99.90
27128;DHT22;14660;49.008;8.390;2023-04-03T10:20:30;9.50;99.90
27128;DHT22;14660;49.008;8.390;2023-04-03T10:57:05;9.40;99.90
27128;DHT22;14660;49.008;8.390;2023-04-03T10:59:55;9.40;99.90
27128;DHT22;14660;49.008;8.390;2023-04-03T11:02:37;9.40;99.90
27128;DHT22;14660;49.008;8.390;2023-04-03T11:10:49;9.40;99.90
27128;DHT22;14660;49.008;8.390;2023-04-03T11:14:03;9.50;99.90
27128;DHT22;14660;49.008;8.390;2023-04-03T11:16:13;9.40;99.90
27128;DHT22;14660;49.008;8.390;2023-04-03T11:19:44;9.60;99.90
27128;DHT22;14660;49.008;8.390;2023-04-03T11:25:21;9.60;99.90
27128;DHT22;14660;49.008;8.390;2023-04-03T11:28:03;9.40;99.90
27128;DHT22;14660;49.008;8.390;2023-04-03T11:34:36;9.40;99.90
27128;DHT22;14660;49.008;8.390;2023-04-03T11:37:11;9.40;99.90
27128;DHT22;14660;49.008;8.390;2023-04-03T11:39:50;9.60;99.90
27128;DHT22;14660;49.008;8.390;2023-04-03T11:42:37;9.70;99.90
27128;DHT22;14660;49.008;8.390;2023-04-03T11:50:52;9.90;99.90
27128;DHT22;14660;49.008;8.390;2023-04-03T12:02:34;9.70;99.90
27128;DHT22;14660;49.008;8.390;2023-04-03T12:05:29;9.70;99.90
27128;DHT22;14660;49.008;8.390;2023-04-03T12:11:29;9.30;99.90
27128;DHT22;14660;49.008;8.390;2023-04-03T12:14:16;9.20;99.90
27128;DHT22;14660;49.008;8.390;2023-04-03T12:16:50;9.40;99.90
27128;DHT22;14660;49.008;8.390;2023-04-03T12:19:47;9.40;99.90
27128;DHT22;14660;49.008;8.390;2023-04-03T12:22:16;9.50;99.90
27128;DHT22;14660;49.008;8.390;2023-04-03T12:24:49;9.20;99.90
27128;DHT22;14660;49.008;8.390;2023-04-03T12:27:38;9.20;99.90
27128;DHT22;14660;49.008;8.390;2023-04-03T12:30:25;9.40;99.90
27128;DHT22;14660;49.008;8.390;2023-04-03T12:33:23;9.60;99.90
27128;DHT22;14660;49.008;8.390;2023-04-03T12:36:13;9.60;99.90
27128;DHT22;14660;49.008;8.390;2023-04-03T12:41:50;9.50;99.90
27128;DHT22;14660;49.008;8.390;2023-04-03T12:55:41;9.30;99.90
27128;DHT22;14660;49.008;8.390;2023-04-03T12:58:26;9.50;99.90
27128;DHT22;14660;49.008;8.390;2023-04-03T13:01:12;9.30;99.90
27128;DHT22;14660;49.008;8.390;2023-04-03T13:03:48;9.30;99.90
27128;DHT22;14660;49.008;8.390;2023-04-03T13:09:03;9.30;99.90
27128;DHT22;14660;49.008;8.390;2023-04-03T13:11:37;9.40;99.90
27128;DHT22;14660;49.008;8.390;2023-04-03T13:14:24;9.50;99.90
27128;DHT22;14660;49.008;8.390;2023-04-03T13:17:00;9.60;99.90
27128;DHT22;14660;49.008;8.390;2023-04-03T13:19:30;9.50;99.90
27128;DHT22;14660;49.008;8.390;2023-04-03T13:22:11;9.50;99.90
27128;DHT22;14660;49.008;8.390;2023-04-03T13:24:46;9.30;99.90
27128;DHT22;14660;49.008;8.390;2023-04-03T13:27:14;9.20;99.90
27128;DHT22;14660;49.008;8.390;2023-04-03T13:29:40;9.30;99.90
27128;DHT22;14660;49.008;8.390;2023-04-03T13:32:13;9.20;99.90
27128;DHT22;14660;49.008;8.390;2023-04-03T13:34:44;9.20;99.90
27128;DHT22;14660;49.008;8.390;2023-04-03T13:40:13;9.50;99.90
27128;DHT22;14660;49.008;8.390;2023-04-03T13:42:41;9.50;99.90
27128;DHT22;14660;49.008;8.390;2023-04-03T13:45:26;9.60;99.90
27128;DHT22;14660;49.008;8.390;2023-04-03T13:48:19;9.50;99.90
27128;DHT22;14660;49.008;8.390;2023-04-03T13:54:10;9.40;99.90
27128;DHT22;14660;49.008;8.390;2023-04-03T13:56:40;9.40;99.90
27128;DHT22;14660;49.008;8.390;2023-04-03T14:02:31;9.60;99.90
27128;DHT22;14660;49.008;8.390;2023-04-03T14:05:00;9.50;99.90
27128;DHT22;14660;49.008;8.390;2023-04-03T14:07:30;9.40;99.90
27128;DHT22;14660;49.008;8.390;2023-04-03T14:09:57;9.60;99.90
27128;DHT22;14660;49.008;8.390;2023-04-03T14:12:44;9.60;99.90
27128;DHT22;14660;49.008;8.390;2023-04-03T14:15:31;9.60;99.90
27128;DHT22;14660;49.008;8.390;2023-04-03T14:17:58;9.60;99.90
27128;DHT22;14660;49.008;8.390;2023-04-03T14:20:27;9.50;99.90
27128;DHT22;14660;49.008;8.390;2023-04-03T14:23:00;9.60;99.90
27128;DHT22;14660;49.008;8.390;2023-04-03T14:25:28;9.50;99.90
27128;DHT22;14660;49.008;8.390;2023-04-03T14:27:55;9.40;99.90
27128;DHT22;14660;49.008;8.390;2023-04-03T14:30:26;9.30;99.90
27128;DHT22;14660;49.008;8.390;2023-04-03T14:32:54;9.20;99.90
27128;DHT22;14660;49.008;8.390;2023-04-03T14:35:21;9.20;99.90
27128;DHT22;14660;49.008;8.390;2023-04-03T14:37:49;9.00;99.90
27128;DHT22;14660;49.008;8.390;2023-04-03T14:40:23;9.20;99.90
27128;DHT22;14660;49.008;8.390;2023-04-03T14:42:51;9.20;99.90
27128;DHT22;14660;49.008;8.390;2023-04-03T14:45:20;9.30;99.90
27128;DHT22;14660;49.008;8.390;2023-04-03T14:47:53;9.40;99.90
27128;DHT22;14660;49.008;8.390;2023-04-03T14:50:22;9.50;99.90
27128;DHT22;14660;49.008;8.390;2023-04-03T14:52:52;9.40;99.90
27128;DHT22;14660;49.008;8.390;2023-04-03T14:55:24;9.30;99.90
27128;DHT22;14660;49.008;8.390;2023-04-03T14:57:51;9.20;99.90
27128;DHT22;14660;49.008;8.390;2023-04-03T15:00:21;9.10;99.90
27128;DHT22;14660;49.008;8.390;2023-04-03T15:02:48;9.10;99.90
27128;DHT22;14660;49.008;8.390;2023-04-03T15:05:15;9.00;99.90
27128;DHT22;14660;49.008;8.390;2023-04-03T15:07:43;9.10;99.90
27128;DHT22;14660;49.008;8.390;2023-04-03T15:10:30;9.10;99.90
27128;DHT22;14660;49.008;8.390;2023-04-03T15:12:57;9.10;99.90
27128;DHT22;14660;49.008;8.390;2023-04-03T15:15:26;9.10;99.90
27128;DHT22;14660;49.008;8.390;2023-04-03T15:17:55;9.20;99.90
27128;DHT22;14660;49.008;8.390;2023-04-03T15:20:26;9.10;99.90
27128;DHT22;14660;49.008;8.390;2023-04-03T15:22:54;9.10;99.90
27128;DHT22;14660;49.008;8.390;2023-04-03T15:25:23;9.10;99.90
27128;DHT22;14660;49.008;8.390;2023-04-03T15:27:50;8.90;99.90
27128;DHT22;14660;49.008;8.390;2023-04-03T15:30:18;8.90;99.90
27128;DHT22;14660;49.008;8.390;2023-04-03T15:32:45;8.90;99.90
27128;DHT22;14660;49.008;8.390;2023-04-03T15:35:14;8.80;99.90
27128;DHT22;14660;49.008;8.390;2023-04-03T15:37:41;8.90;99.90
27128;DHT22;14660;49.008;8.390;2023-04-03T15:40:09;9.00;99.90
27128;DHT22;14660;49.008;8.390;2023-04-03T15:42:36;8.90;99.90
27128;DHT22;14660;49.008;8.390;2023-04-03T15:45:05;9.00;99.90
27128;DHT22;14660;49.008;8.390;2023-04-03T15:47:35;9.00;99.90
27128;DHT22;14660;49.008;8.390;2023-04-03T15:50:01;9.00;99.90
27128;DHT22;14660;49.008;8.390;2023-04-03T15:52:28;9.00;99.90
27128;DHT22;14660;49.008;8.390;2023-04-03T15:54:55;8.90;99.90
27128;DHT22;14660;49.008;8.390;2023-04-03T15:57:21;8.80;99.90
27128;DHT22;14660;49.008;8.390;2023-04-03T15:59:52;8.70;99.90
27128;DHT22;14660;49.008;8.390;2023-04-03T16:02:19;8.70;99.90
27128;DHT22;14660;49.008;8.390;2023-04-03T16:04:46;8.70;99.90
27128;DHT22;14660;49.008;8.390;2023-04-03T16:07:13;8.90;99.90
27128;DHT22;14660;49.008;8.390;2023-04-03T16:09:40;9.00;99.90
27128;DHT22;14660;49.008;8.390;2023-04-03T16:12:07;8.90;99.90
27128;DHT22;14660;49.008;8.390;2023-04-03T16:14:34;9.00;99.90
27128;DHT22;14660;49.008;8.390;2023-04-03T16:17:00;9.00;99.90
27128;DHT22;14660;49.008;8.390;2023-04-03T16:19:27;9.00;99.90
27128;DHT22;14660;49.008;8.390;2023-04-03T16:21:54;8.90;99.90
27128;DHT22;14660;49.008;8.390;2023-04-03T16:24:22;8.90;99.90
27128;DHT22;14660;49.008;8.390;2023-04-03T16:26:48;8.90;99.90
27128;DHT22;14660;49.008;8.390;2023-04-03T16:29:16;8.80;99.90
27128;DHT22;14660;49.008;8.390;2023-04-03T16:31:43;8.80;99.90
27128;DHT22;14660;49.008;8.390;2023-04-03T16:34:10;8.70;99.90
27128;DHT22;14660;49.008;8.390;2023-04-03T16:36:37;8.70;99.90
27128;DHT22;14660;49.008;8.390;2023-04-03T16:39:04;8.70;99.90
27128;DHT22;14660;49.008;8.390;2023-04-03T16:41:31;8.70;99.90
27128;DHT22;14660;49.008;8.390;2023-04-03T16:43:58;8.70;99.90
27128;DHT22;14660;49.008;8.390;2023-04-03T16:46:25;8.80;99.90
27128;DHT22;14660;49.008;8.390;2023-04-03T16:48:52;8.70;99.90
27128;DHT22;14660;49.008;8.390;2023-04-03T16:51:19;8.60;99.90
27128;DHT22;14660;49.008;8.390;2023-04-03T16:53:46;8.60;99.90
27128;DHT22;14660;49.008;8.390;2023-04-03T16:56:11;8.60;99.90
27128;DHT22;14660;49.008;8.390;2023-04-03T16:58:38;8.50;99.90
27128;DHT22;14660;49.008;8.390;2023-04-03T17:01:17;8.50;99.90
27128;DHT22;14660;49.008;8.390;2023-04-03T17:03:45;8.50;99.90
27128;DHT22;14660;49.008;8.390;2023-04-03T17:06:16;8.50;99.90
27128;DHT22;14660;49.008;8.390;2023-04-03T17:08:46;8.50;99.90
27128;DHT22;14660;49.008;8.390;2023-04-03T17:11:15;8.40;99.90
27128;DHT22;14660;49.008;8.390;2023-04-03T17:13:42;8.50;99.90
27128;DHT22;14660;49.008;8.390;2023-04-03T17:16:11;8.50;99.90
27128;DHT22;14660;49.008;8.390;2023-04-03T17:18:40;8.50;99.90
27128;DHT22;14660;49.008;8.390;2023-04-03T17:21:06;8.50;99.90
27128;DHT22;14660;49.008;8.390;2023-04-03T17:23:34;8.50;99.90
27128;DHT22;14660;49.008;8.390;2023-04-03T17:26:03;8.50;99.90
27128;DHT22;14660;49.008;8.390;2023-04-03T17:28:30;8.40;99.90
27128;DHT22;14660;49.008;8.390;2023-04-03T17:30:59;8.30;99.90
27128;DHT22;14660;49.008;8.390;2023-04-03T17:33:27;8.20;99.90
27128;DHT22;14660;49.008;8.390;2023-04-03T17:36:01;8.20;99.90
27128;DHT22;14660;49.008;8.390;2023-04-03T17:38:29;8.10;99.90
27128;DHT22;14660;49.008;8.390;2023-04-03T17:40:57;8.20;99.90
27128;DHT22;14660;49.008;8.390;2023-04-03T17:43:24;8.10;99.90
27128;DHT22;14660;49.008;8.390;2023-04-03T17:45:50;8.00;99.90
27128;DHT22;14660;49.008;8.390;2023-04-03T17:48:17;8.00;99.90
27128;DHT22;14660;49.008;8.390;2023-04-03T17:50:44;8.00;99.90
27128;DHT22;14660;49.008;8.390;2023-04-03T17:53:11;8.00;99.90
27128;DHT22;14660;49.008;8.390;2023-04-03T17:55:41;7.90;99.90